createdAt,value
2019-05-23T00:00:32.939Z,2.20
2019-05-23T00:03:21.911Z,2.70
2019-05-23T00:06:11.321Z,2.45
2019-05-23T00:08:58.579Z,2.70
2019-05-23T00:11:32.969Z,2.77
2019-05-23T00:14:07.991Z,2.52
2019-05-23T00:16:40.394Z,2.62
2019-05-23T00:19:09.978Z,2.47
2019-05-23T00:21:41.858Z,2.90
2019-05-23T00:24:11.239Z,2.70
2019-05-23T00:26:41.211Z,2.60
2019-05-23T00:29:10.959Z,2.83
2019-05-23T00:32:03.214Z,3.05
2019-05-23T00:34:33.734Z,2.95
2019-05-23T00:37:04.531Z,2.72
2019-05-23T00:39:34.691Z,2.87
2019-05-23T00:42:03.295Z,3.02
2019-05-23T00:44:31.820Z,2.67
2019-05-23T00:47:00.411Z,2.73
2019-05-23T00:49:29.141Z,3.20
2019-05-23T00:51:57.726Z,3.10
2019-05-23T00:54:26.927Z,3.10
2019-05-23T00:56:55.733Z,3.40
2019-05-23T00:59:27.513Z,2.72
2019-05-23T01:01:56.422Z,2.83
2019-05-23T01:04:25.686Z,3.20
2019-05-23T01:06:55.970Z,3.07
2019-05-23T01:09:26.006Z,3.20
2019-05-23T01:11:55.373Z,3.15
2019-05-23T01:14:24.869Z,3.47
2019-05-23T01:16:54.321Z,2.70
2019-05-23T01:19:24.069Z,2.65
2019-05-23T01:22:01.735Z,3.20
2019-05-23T01:24:36.098Z,3.10
2019-05-23T01:27:05.807Z,3.10
2019-05-23T01:29:39.477Z,3.20
2019-05-23T01:32:27.122Z,3.07
2019-05-23T01:34:56.658Z,2.67
2019-05-23T01:37:26.083Z,2.92
2019-05-23T01:39:55.411Z,3.08
2019-05-23T01:42:24.065Z,2.58
2019-05-23T01:44:53.756Z,3.25
2019-05-23T01:47:23.318Z,2.70
2019-05-23T01:49:54.604Z,2.97
2019-05-23T01:52:23.673Z,3.00
2019-05-23T01:54:52.283Z,3.20
2019-05-23T01:57:22.520Z,2.80
2019-05-23T02:00:08.149Z,2.90
2019-05-23T02:02:22.877Z,3.10
2019-05-23T02:04:51.946Z,3.30
2019-05-23T02:07:20.627Z,3.37
2019-05-23T02:09:49.502Z,3.42
2019-05-23T02:12:18.281Z,2.70
2019-05-23T02:14:48.380Z,2.47
2019-05-23T02:17:17.050Z,2.95
2019-05-23T02:19:46.440Z,2.45
2019-05-23T02:22:15.734Z,3.25
2019-05-23T02:24:44.562Z,2.83
2019-05-23T02:27:13.230Z,3.10
2019-05-23T02:29:41.821Z,2.90
2019-05-23T02:32:11.269Z,3.37
2019-05-23T02:34:40.643Z,3.03
2019-05-23T02:37:17.423Z,3.22
2019-05-23T02:40:08.042Z,3.30
2019-05-23T02:42:45.145Z,3.45
2019-05-23T02:45:18.374Z,3.35
2019-05-23T02:47:50.143Z,3.73
2019-05-23T02:50:22.779Z,3.60
2019-05-23T02:52:54.146Z,3.62
2019-05-23T02:55:28.222Z,3.00
2019-05-23T02:57:59.861Z,3.75
2019-05-23T03:00:54.755Z,3.40
2019-05-23T03:03:25.630Z,3.50
2019-05-23T03:05:56.262Z,3.60
2019-05-23T03:08:24.857Z,3.30
2019-05-23T03:10:58.153Z,3.17
2019-05-23T03:13:29.978Z,3.30
2019-05-23T03:15:58.683Z,3.30
2019-05-23T03:18:28.740Z,3.47
2019-05-23T03:20:58.431Z,3.47
2019-05-23T03:23:27.605Z,3.07
2019-05-23T03:26:16.432Z,2.97
2019-05-23T03:28:45.892Z,3.07
2019-05-23T03:31:30.608Z,3.40
2019-05-23T03:33:56.976Z,3.25
2019-05-23T03:36:25.851Z,3.67
2019-05-23T03:38:55.406Z,3.40
2019-05-23T03:41:25.068Z,3.05
2019-05-23T03:43:53.842Z,3.13
2019-05-23T03:46:25.501Z,2.92
2019-05-23T03:48:55.615Z,3.60
2019-05-23T03:51:24.294Z,3.50
2019-05-23T03:53:54.438Z,3.12
2019-05-23T03:56:24.742Z,3.40
2019-05-23T03:58:56.031Z,3.33
2019-05-23T04:01:44.016Z,2.97
2019-05-23T04:03:57.018Z,3.43
2019-05-23T04:06:26.763Z,3.10
2019-05-23T04:08:56.235Z,3.23
2019-05-23T04:11:24.952Z,3.10
2019-05-23T04:13:54.436Z,3.22
2019-05-23T04:16:23.190Z,3.17
2019-05-23T04:18:51.857Z,3.40
2019-05-23T04:21:24.111Z,3.47
2019-05-23T04:23:52.713Z,3.80
2019-05-23T04:26:22.585Z,3.20
2019-05-23T04:28:52.121Z,3.27
2019-05-23T04:31:20.806Z,3.40
2019-05-23T04:33:49.418Z,3.10
2019-05-23T04:36:18.000Z,3.52
2019-05-23T04:38:47.154Z,3.58
2019-05-23T04:41:15.875Z,3.07
2019-05-23T04:43:44.769Z,3.27
2019-05-23T04:46:13.379Z,3.47
2019-05-23T04:48:42.747Z,3.10
2019-05-23T04:51:12.296Z,3.65
2019-05-23T04:53:41.127Z,3.43
2019-05-23T04:56:11.338Z,3.60
2019-05-23T04:58:40.275Z,3.10
2019-05-23T05:01:09.958Z,3.45
2019-05-23T05:03:38.862Z,3.58
2019-05-23T05:06:07.469Z,3.70
2019-05-23T05:08:36.663Z,3.40
2019-05-23T05:11:05.408Z,3.93
2019-05-23T05:13:34.785Z,3.47
2019-05-23T05:16:03.529Z,4.30
2019-05-23T05:18:32.445Z,3.75
2019-05-23T05:21:01.029Z,4.43
2019-05-23T05:23:29.666Z,3.60
2019-05-23T05:25:58.254Z,1.40
2019-05-23T05:28:26.847Z,1.90
2019-05-23T05:30:55.727Z,1.72
2019-05-23T05:33:24.374Z,1.70
2019-05-23T05:35:53.610Z,1.80
2019-05-23T05:38:22.702Z,2.08
2019-05-23T05:40:51.556Z,2.45
2019-05-23T05:43:20.201Z,2.10
2019-05-23T05:45:49.070Z,2.17
2019-05-23T05:48:18.146Z,2.08
2019-05-23T05:50:46.667Z,2.13
2019-05-23T05:53:15.791Z,2.45
2019-05-23T05:55:44.394Z,2.55
2019-05-23T05:58:13.213Z,2.83
2019-05-23T06:01:00.798Z,2.50
2019-05-23T06:03:29.682Z,2.87
2019-05-23T06:06:10.652Z,3.37
2019-05-23T06:08:40.239Z,2.60
2019-05-23T06:11:10.042Z,3.30
2019-05-23T06:13:38.602Z,2.93
2019-05-23T06:16:07.722Z,3.25
2019-05-23T06:18:36.301Z,3.07
2019-05-23T06:21:06.158Z,3.22
2019-05-23T06:23:34.798Z,3.53
2019-05-23T06:26:03.557Z,2.83
2019-05-23T06:28:32.951Z,3.15
2019-05-23T06:31:01.804Z,3.20
2019-05-23T06:33:31.549Z,3.70
2019-05-23T06:36:00.421Z,2.90
2019-05-23T06:38:29.942Z,3.02
2019-05-23T06:40:59.170Z,3.20
2019-05-23T06:43:27.949Z,3.25
2019-05-23T06:45:56.542Z,3.08
2019-05-23T06:48:25.143Z,3.50
2019-05-23T06:51:12.762Z,3.20
2019-05-23T06:53:41.290Z,3.05
2019-05-23T06:56:10.806Z,3.10
2019-05-23T06:58:39.664Z,3.13
2019-05-23T07:01:08.431Z,2.70
2019-05-23T07:03:42.693Z,3.00
2019-05-23T07:06:08.812Z,3.02
2019-05-23T07:08:37.469Z,2.70
2019-05-23T07:11:06.143Z,3.27
2019-05-23T07:13:35.737Z,3.22
2019-05-23T07:16:05.118Z,2.75
2019-05-23T07:18:34.594Z,2.57
2019-05-23T07:21:04.832Z,3.22
2019-05-23T07:23:33.576Z,3.12
2019-05-23T07:26:02.580Z,4.67
2019-05-23T07:28:31.334Z,3.15
2019-05-23T07:31:01.180Z,5.97
2019-05-23T07:33:29.795Z,5.33
2019-05-23T07:35:58.684Z,4.87
2019-05-23T07:38:27.374Z,4.92
2019-05-23T07:40:56.774Z,5.40
2019-05-23T07:43:25.541Z,4.83
2019-05-23T07:45:56.694Z,5.00
2019-05-23T07:48:26.243Z,3.00
2019-05-23T07:50:55.858Z,4.55
2019-05-23T07:53:44.068Z,5.00
2019-05-23T07:56:14.651Z,3.80
2019-05-23T07:58:43.926Z,3.55
2019-05-23T08:01:14.735Z,3.53
2019-05-23T08:03:44.190Z,3.22
2019-05-23T08:06:13.555Z,1.77
2019-05-23T08:08:42.237Z,3.87
2019-05-23T08:11:10.771Z,3.30
2019-05-23T08:13:39.631Z,2.70
2019-05-23T08:16:08.533Z,3.22
2019-05-23T08:18:37.153Z,2.53
2019-05-23T08:21:11.718Z,3.03
2019-05-23T08:23:40.432Z,3.73
2019-05-23T08:26:09.040Z,3.10
2019-05-23T08:28:53.383Z,3.92
2019-05-23T08:31:08.403Z,4.00
2019-05-23T08:33:37.991Z,3.55
2019-05-23T08:36:06.506Z,3.77
2019-05-23T08:38:36.434Z,4.87
2019-05-23T08:41:06.167Z,3.47
2019-05-23T08:43:35.473Z,2.98
2019-05-23T08:46:04.581Z,4.43
2019-05-23T08:48:33.323Z,4.17
2019-05-23T08:51:02.142Z,4.00
2019-05-23T08:53:31.869Z,4.60
2019-05-23T08:56:00.609Z,2.00
2019-05-23T08:58:29.527Z,2.83
2019-05-23T09:00:58.196Z,3.72
2019-05-23T09:03:27.658Z,3.13
2019-05-23T09:05:57.777Z,2.77
2019-05-23T09:08:27.535Z,2.03
2019-05-23T09:10:56.728Z,2.85
2019-05-23T09:13:25.589Z,2.83
2019-05-23T09:15:54.370Z,2.20
2019-05-23T09:18:24.012Z,4.00
2019-05-23T09:20:52.606Z,3.30
2019-05-23T09:23:21.229Z,3.63
2019-05-23T09:25:49.830Z,3.30
2019-05-23T09:28:19.514Z,3.53
2019-05-23T09:30:48.546Z,3.60
2019-05-23T09:33:17.478Z,3.70
2019-05-23T09:35:46.634Z,2.63
2019-05-23T09:38:15.290Z,1.93
2019-05-23T09:40:44.779Z,2.00
2019-05-23T09:43:13.650Z,2.40
2019-05-23T09:45:42.441Z,1.67
2019-05-23T09:48:10.990Z,0.82
2019-05-23T09:50:39.584Z,0.70
2019-05-23T09:53:08.253Z,1.60
2019-05-23T09:55:37.124Z,1.80
2019-05-23T09:58:05.790Z,1.37
2019-05-23T10:00:36.034Z,1.87
2019-05-23T10:03:06.274Z,1.20
2019-05-23T10:05:42.528Z,1.55
2019-05-23T10:08:05.826Z,0.85
2019-05-23T10:10:34.911Z,0.65
2019-05-23T10:13:03.582Z,1.87
2019-05-23T10:16:10.290Z,1.83
2019-05-23T10:18:39.959Z,0.85
2019-05-23T10:21:08.841Z,0.55
2019-05-23T10:23:37.353Z,0.98
2019-05-23T10:26:06.680Z,1.40
2019-05-23T10:28:35.549Z,1.37
2019-05-23T10:31:06.556Z,1.30
2019-05-23T10:33:35.337Z,1.30
2019-05-23T10:36:04.275Z,1.35
2019-05-23T10:38:32.853Z,1.10
2019-05-23T10:41:01.946Z,0.70
2019-05-23T10:43:30.694Z,1.07
2019-05-23T10:45:59.484Z,0.85
2019-05-23T10:48:28.810Z,1.33
2019-05-23T10:50:57.466Z,1.03
2019-05-23T10:53:26.243Z,1.47
2019-05-23T10:55:54.830Z,1.20
2019-05-23T10:58:24.648Z,1.17
2019-05-23T11:00:54.013Z,1.32
2019-05-23T11:03:24.010Z,1.50
2019-05-23T11:05:52.625Z,1.27
2019-05-23T11:08:27.252Z,2.00
2019-05-23T11:10:52.122Z,1.77
2019-05-23T11:13:20.751Z,1.33
2019-05-23T11:15:49.707Z,1.40
2019-05-23T11:18:18.512Z,1.13
2019-05-23T11:20:47.751Z,1.25
2019-05-23T11:23:21.446Z,1.53
2019-05-23T11:25:50.140Z,2.00
2019-05-23T11:28:18.730Z,2.05
2019-05-23T11:30:53.476Z,2.08
2019-05-23T11:33:22.654Z,1.72
2019-05-23T11:35:51.519Z,1.77
2019-05-23T11:38:21.570Z,0.68
2019-05-23T11:40:50.559Z,2.75
2019-05-23T11:43:19.154Z,1.90
2019-05-23T11:45:51.443Z,3.90
2019-05-23T11:48:20.281Z,2.30
2019-05-23T11:50:48.875Z,2.60
2019-05-23T11:53:17.418Z,1.10
2019-05-23T11:55:46.022Z,2.00
2019-05-23T11:58:14.797Z,0.85
2019-05-23T12:01:21.161Z,2.37
2019-05-23T12:03:54.414Z,3.50
2019-05-23T12:06:26.385Z,2.97
2019-05-23T12:08:54.084Z,1.72
2019-05-23T12:11:23.226Z,3.30
2019-05-23T12:13:52.172Z,2.40
2019-05-23T12:16:22.353Z,3.55
2019-05-23T12:18:52.290Z,3.25
2019-05-23T12:21:22.746Z,4.28
2019-05-23T12:23:51.389Z,3.90
2019-05-23T12:26:20.034Z,4.20
2019-05-23T12:28:48.786Z,3.87
2019-05-23T12:31:17.885Z,4.07
2019-05-23T12:33:46.486Z,5.10
2019-05-23T12:36:15.183Z,2.50
2019-05-23T12:38:43.963Z,1.47
2019-05-23T12:41:14.374Z,3.15
2019-05-23T12:43:42.976Z,3.47
2019-05-23T12:46:11.787Z,2.90
2019-05-23T12:49:08.590Z,1.57
2019-05-23T12:51:39.607Z,3.15
2019-05-23T12:54:08.325Z,3.23
2019-05-23T12:56:37.106Z,3.40
2019-05-23T12:59:05.823Z,3.58
2019-05-23T13:01:35.973Z,3.40
2019-05-23T13:04:04.608Z,1.93
2019-05-23T13:06:33.468Z,3.08
2019-05-23T13:09:02.206Z,1.73
2019-05-23T13:11:31.988Z,3.47
2019-05-23T13:14:00.568Z,3.42
2019-05-23T13:16:29.758Z,3.58
2019-05-23T13:18:58.372Z,1.98
2019-05-23T13:21:27.637Z,2.67
2019-05-23T13:23:56.269Z,1.85
2019-05-23T13:26:25.135Z,1.83
2019-05-23T13:28:53.742Z,2.77
2019-05-23T13:31:22.380Z,2.65
2019-05-23T13:33:51.127Z,2.50
2019-05-23T13:36:19.888Z,2.02
2019-05-23T13:38:48.674Z,1.23
2019-05-23T13:41:17.242Z,2.50
2019-05-23T13:43:45.970Z,1.27
2019-05-23T13:46:14.558Z,1.17
2019-05-23T13:48:43.520Z,3.00
2019-05-23T13:51:12.123Z,2.70
2019-05-23T13:53:40.706Z,2.60
2019-05-23T13:56:09.310Z,3.40
2019-05-23T13:58:37.879Z,3.77
2019-05-23T14:01:09.562Z,2.93
2019-05-23T14:03:38.731Z,2.45
2019-05-23T14:06:07.862Z,3.47
2019-05-23T14:08:36.398Z,3.30
2019-05-23T14:11:04.979Z,3.37
2019-05-23T14:13:33.722Z,3.40
2019-05-23T14:16:02.694Z,2.85
2019-05-23T14:18:34.145Z,3.60
2019-05-23T14:21:02.865Z,3.65
2019-05-23T14:23:32.962Z,3.13
2019-05-23T14:26:01.671Z,3.30
2019-05-23T14:28:31.899Z,3.52
2019-05-23T14:31:05.589Z,4.10
2019-05-23T14:33:53.318Z,3.92
2019-05-23T14:36:39.903Z,3.80
2019-05-23T14:39:14.396Z,4.10
2019-05-23T14:41:57.704Z,3.17
2019-05-23T14:44:26.286Z,2.60
2019-05-23T14:47:13.018Z,3.30
2019-05-23T14:50:18.789Z,3.62
2019-05-23T14:52:48.385Z,3.67
2019-05-23T14:55:17.294Z,3.43
2019-05-23T14:57:45.994Z,3.05
2019-05-23T15:00:14.766Z,3.23
2019-05-23T15:02:43.359Z,2.93
2019-05-23T15:05:12.089Z,3.72
2019-05-23T15:07:41.446Z,3.15
2019-05-23T15:10:10.934Z,3.93
2019-05-23T15:12:39.640Z,4.03
2019-05-23T15:15:08.324Z,3.50
2019-05-23T15:17:36.923Z,3.72
2019-05-23T15:20:07.448Z,3.77
2019-05-23T15:22:36.042Z,3.60
2019-05-23T15:25:04.746Z,3.77
2019-05-23T15:27:33.433Z,3.77
2019-05-23T15:30:02.239Z,4.17
2019-05-23T15:32:31.013Z,3.33
2019-05-23T15:34:59.553Z,3.50
2019-05-23T15:37:28.218Z,3.87
2019-05-23T15:39:56.921Z,4.63
2019-05-23T15:42:25.911Z,3.72
2019-05-23T15:44:55.159Z,3.37
2019-05-23T15:47:26.938Z,2.90
2019-05-23T15:49:57.354Z,2.90
2019-05-23T15:52:41.150Z,3.57
2019-05-23T15:55:24.498Z,2.83
2019-05-23T15:57:59.365Z,3.10
2019-05-23T16:00:47.714Z,3.55
2019-05-23T16:03:26.394Z,3.87
2019-05-23T16:05:55.726Z,5.33
2019-05-23T16:08:24.505Z,3.65
2019-05-23T16:10:53.309Z,3.83
2019-05-23T16:13:22.915Z,3.33
2019-05-23T16:15:51.600Z,3.97
2019-05-23T16:18:21.418Z,3.87
2019-05-23T16:20:49.986Z,3.70
2019-05-23T16:23:18.786Z,3.50
2019-05-23T16:25:47.341Z,3.37
2019-05-23T16:28:15.858Z,3.13
2019-05-23T16:30:44.532Z,4.10
2019-05-23T16:33:13.138Z,4.00
2019-05-23T16:35:41.848Z,4.08
2019-05-23T16:38:10.574Z,3.63
2019-05-23T16:40:39.214Z,3.98
2019-05-23T16:43:07.975Z,3.42
2019-05-23T16:45:36.575Z,3.73
2019-05-23T16:48:05.178Z,4.33
2019-05-23T16:50:33.778Z,3.93
2019-05-23T16:53:02.478Z,3.50
2019-05-23T16:55:56.329Z,3.70
2019-05-23T16:58:46.493Z,3.90
2019-05-23T17:01:34.361Z,3.43
2019-05-23T17:04:17.518Z,3.57
2019-05-23T17:06:54.737Z,4.17
2019-05-23T17:10:08.145Z,3.83
2019-05-23T17:13:02.709Z,3.83
2019-05-23T17:15:42.557Z,4.70
2019-05-23T17:18:42.514Z,4.67
2019-05-23T17:21:43.221Z,4.53
2019-05-23T17:24:27.175Z,3.75
2019-05-23T17:27:01.587Z,3.85
2019-05-23T17:29:52.623Z,3.98
2019-05-23T17:32:24.872Z,4.03
2019-05-23T17:34:54.001Z,4.53
2019-05-23T17:37:25.391Z,4.30
2019-05-23T17:39:54.110Z,3.55
2019-05-23T17:42:23.090Z,3.63
2019-05-23T17:44:51.846Z,4.20
2019-05-23T17:47:20.622Z,4.80
2019-05-23T17:49:49.209Z,5.23
2019-05-23T17:52:18.804Z,3.23
2019-05-23T17:54:47.403Z,4.17
2019-05-23T17:57:16.062Z,4.30
2019-05-23T17:59:44.622Z,4.25
2019-05-23T18:02:14.359Z,4.30
2019-05-23T18:04:43.066Z,4.53
2019-05-23T18:07:12.744Z,3.95
2019-05-23T18:09:43.001Z,3.10
2019-05-23T18:12:12.175Z,4.57
2019-05-23T18:14:41.513Z,4.03
2019-05-23T18:17:11.208Z,3.80
2019-05-23T18:19:40.080Z,3.87
2019-05-23T18:22:10.659Z,3.97
2019-05-23T18:24:39.646Z,3.87
2019-05-23T18:27:10.544Z,4.57
2019-05-23T18:29:39.294Z,4.12
2019-05-23T18:32:11.950Z,3.70
2019-05-23T18:34:41.086Z,3.60
2019-05-23T18:37:10.397Z,3.92
2019-05-23T18:39:40.190Z,3.75
2019-05-23T18:42:08.905Z,3.27
2019-05-23T18:44:37.739Z,2.90
2019-05-23T18:47:11.474Z,3.83
2019-05-23T18:49:40.135Z,3.20
2019-05-23T18:52:09.221Z,3.17
2019-05-23T18:54:37.824Z,3.08
2019-05-23T18:57:07.958Z,2.90
2019-05-23T18:59:36.845Z,3.07
2019-05-23T19:02:06.606Z,2.62
2019-05-23T19:04:35.665Z,2.55
2019-05-23T19:07:05.648Z,3.03
2019-05-23T19:09:34.322Z,2.87
2019-05-23T19:12:04.850Z,2.90
2019-05-23T19:14:33.446Z,3.07
2019-05-23T19:17:02.101Z,2.63
2019-05-23T19:19:31.006Z,3.23
2019-05-23T19:21:59.521Z,3.03
2019-05-23T19:24:28.314Z,3.10
2019-05-23T19:26:56.906Z,2.65
2019-05-23T19:29:25.507Z,3.03
2019-05-23T19:31:55.010Z,2.90
2019-05-23T19:34:23.915Z,3.20
2019-05-23T19:36:52.508Z,3.10
2019-05-23T19:39:22.189Z,2.62
2019-05-23T19:41:50.717Z,2.77
2019-05-23T19:44:19.329Z,2.83
2019-05-23T19:46:47.949Z,2.63
2019-05-23T19:49:16.823Z,3.10
2019-05-23T19:51:45.414Z,3.37
2019-05-23T19:54:14.702Z,2.90
2019-05-23T19:56:43.237Z,2.92
2019-05-23T19:59:12.003Z,3.07
2019-05-23T20:02:02.577Z,2.90
2019-05-23T20:04:33.798Z,3.33
2019-05-23T20:07:02.582Z,2.85
2019-05-23T20:09:31.383Z,2.33
2019-05-23T20:12:00.491Z,2.80
2019-05-23T20:14:29.426Z,3.05
2019-05-23T20:16:58.017Z,3.27
2019-05-23T20:19:26.558Z,3.02
2019-05-23T20:21:55.142Z,2.80
2019-05-23T20:24:24.052Z,3.05
2019-05-23T20:26:52.652Z,3.00
2019-05-23T20:29:21.259Z,2.93
2019-05-23T20:31:49.847Z,3.00
2019-05-23T20:34:19.552Z,3.67
2019-05-23T20:36:48.152Z,3.33
2019-05-23T20:39:17.133Z,3.67
2019-05-23T20:41:46.238Z,5.03
2019-05-23T20:44:14.984Z,4.10
2019-05-23T20:46:43.586Z,4.17
2019-05-23T20:49:12.098Z,3.87
2019-05-23T20:51:40.992Z,2.90
2019-05-23T20:54:10.227Z,3.15
2019-05-23T20:56:38.836Z,3.47
2019-05-23T20:59:08.001Z,3.37
2019-05-23T21:01:39.486Z,3.50
2019-05-23T21:04:08.565Z,3.62
2019-05-23T21:06:37.198Z,3.37
2019-05-23T21:09:07.079Z,3.93
2019-05-23T21:11:36.154Z,3.90
2019-05-23T21:14:04.965Z,3.63
2019-05-23T21:16:33.474Z,2.87
2019-05-23T21:19:02.780Z,3.85
2019-05-23T21:21:31.386Z,3.37
2019-05-23T21:24:00.001Z,4.00
2019-05-23T21:26:28.526Z,4.58
2019-05-23T21:28:57.602Z,3.50
2019-05-23T21:31:26.487Z,3.33
2019-05-23T21:33:55.203Z,3.23
2019-05-23T21:36:23.882Z,3.53
2019-05-23T21:38:52.458Z,3.65
2019-05-23T21:41:21.073Z,4.03
2019-05-23T21:43:51.539Z,3.30
2019-05-23T21:46:20.222Z,3.70
2019-05-23T21:48:48.814Z,4.17
2019-05-23T21:51:17.414Z,3.42
2019-05-23T21:53:46.205Z,3.77
2019-05-23T21:56:14.825Z,3.60
2019-05-23T21:58:43.414Z,4.33
2019-05-23T22:01:38.701Z,4.50
2019-05-23T22:04:25.217Z,4.20
2019-05-23T22:06:56.302Z,4.40
2019-05-23T22:09:24.910Z,4.23
2019-05-23T22:11:53.755Z,3.60
2019-05-23T22:14:22.365Z,3.70
2019-05-23T22:16:51.246Z,3.77
2019-05-23T22:19:21.780Z,3.80
2019-05-23T22:21:50.414Z,3.67
2019-05-23T22:24:19.318Z,4.13
2019-05-23T22:26:47.952Z,3.87
2019-05-23T22:29:16.960Z,3.57
2019-05-23T22:31:46.319Z,3.80
2019-05-23T22:34:32.851Z,3.40
2019-05-23T22:37:02.121Z,3.47
2019-05-23T22:39:30.739Z,3.33
2019-05-23T22:41:59.342Z,2.98
2019-05-23T22:44:27.858Z,3.35
2019-05-23T22:46:56.474Z,3.35
2019-05-23T22:49:25.051Z,3.03
2019-05-23T22:51:54.085Z,3.37
2019-05-23T22:54:22.665Z,3.63
2019-05-23T22:56:52.288Z,3.37
2019-05-23T22:59:21.572Z,3.37
2019-05-23T23:01:50.235Z,2.83
2019-05-23T23:04:18.926Z,4.20
2019-05-23T23:06:47.525Z,2.90
2019-05-23T23:09:16.622Z,3.02
2019-05-23T23:11:45.218Z,2.95
2019-05-23T23:14:14.011Z,3.70
2019-05-23T23:16:42.679Z,2.93
2019-05-23T23:19:11.664Z,3.20
2019-05-23T23:21:51.806Z,3.47
2019-05-23T23:24:20.434Z,3.40
2019-05-23T23:26:49.767Z,3.67
2019-05-23T23:29:18.374Z,3.47
2019-05-23T23:31:47.032Z,3.43
2019-05-23T23:34:15.878Z,3.60
2019-05-23T23:36:44.471Z,2.80
2019-05-23T23:39:13.249Z,3.47
2019-05-23T23:41:41.830Z,3.13
2019-05-23T23:44:11.474Z,3.10
2019-05-23T23:46:57.854Z,3.53
2019-05-23T23:49:44.039Z,3.83
2019-05-23T23:52:30.471Z,3.67
2019-05-23T23:55:17.378Z,3.67
2019-05-23T23:58:00.494Z,4.33
